createdAt,value
2017-06-10T00:00:02.367Z,0
2017-06-10T00:00:43.068Z,0
2017-06-10T00:01:23.580Z,0
2017-06-10T00:02:05.299Z,0
2017-06-10T00:02:45.894Z,0
2017-06-10T00:03:26.426Z,0
2017-06-10T00:04:07.081Z,0
2017-06-10T00:04:47.646Z,0
2017-06-10T00:05:28.182Z,0
2017-06-10T00:06:08.835Z,0
2017-06-10T00:06:49.402Z,0
2017-06-10T00:07:29.935Z,0
2017-06-10T00:08:10.568Z,0
2017-06-10T00:08:51.153Z,0
2017-06-10T00:09:31.679Z,0
2017-06-10T00:10:12.303Z,0
2017-06-10T00:10:53.980Z,0
2017-06-10T00:11:34.486Z,0
2017-06-10T00:12:15.102Z,0
2017-06-10T00:12:55.693Z,0
2017-06-10T00:13:36.223Z,0
2017-06-10T00:14:16.852Z,0
2017-06-10T00:14:57.551Z,0
2017-06-10T00:15:38.072Z,0
2017-06-10T00:16:19.619Z,0
2017-06-10T00:17:00.225Z,0
2017-06-10T00:17:40.762Z,0
2017-06-10T00:18:21.371Z,0
2017-06-10T00:19:01.981Z,0
2017-06-10T00:19:42.621Z,0
2017-06-10T00:20:23.178Z,0
2017-06-10T00:21:03.839Z,0
2017-06-10T00:21:44.489Z,0
2017-06-10T00:22:26.062Z,0
2017-06-10T00:23:06.599Z,0
2017-06-10T00:23:47.206Z,0
2017-06-10T00:24:28.831Z,0
2017-06-10T00:25:09.359Z,0
2017-06-10T00:25:50.037Z,0
2017-06-10T00:26:30.584Z,0
2017-06-10T00:27:11.142Z,0
2017-06-10T00:27:51.736Z,0
2017-06-10T00:28:32.294Z,0
2017-06-10T00:29:12.947Z,0
2017-06-10T00:29:54.515Z,0
2017-06-10T00:30:35.243Z,0
2017-06-10T00:31:15.819Z,0
2017-06-10T00:31:56.379Z,0
2017-06-10T00:32:36.928Z,0
2017-06-10T00:33:17.543Z,0
2017-06-10T00:34:02.625Z,0
2017-06-10T00:34:43.151Z,0
2017-06-10T00:35:23.760Z,0
2017-06-10T00:36:05.078Z,0
2017-06-10T00:36:46.672Z,0
2017-06-10T00:37:27.209Z,0
2017-06-10T00:38:07.789Z,0
2017-06-10T00:38:48.441Z,0
2017-06-10T00:39:29.092Z,0
2017-06-10T00:40:09.752Z,0
2017-06-10T00:40:51.321Z,0
2017-06-10T00:41:31.878Z,0
2017-06-10T00:42:13.432Z,0
2017-06-10T00:42:55.017Z,0
2017-06-10T00:43:37.575Z,0
2017-06-10T00:44:18.207Z,0
2017-06-10T00:44:59.793Z,0
2017-06-10T00:45:40.455Z,0
2017-06-10T00:46:21.106Z,0
2017-06-10T00:47:01.751Z,0
2017-06-10T00:47:42.414Z,0
2017-06-10T00:48:22.989Z,0
2017-06-10T00:49:03.509Z,0
2017-06-10T00:49:44.108Z,0
2017-06-10T00:50:24.701Z,0
2017-06-10T00:51:06.320Z,0
2017-06-10T00:51:46.845Z,0
2017-06-10T00:52:27.439Z,0
2017-06-10T00:53:08.069Z,0
2017-06-10T00:53:48.624Z,0
2017-06-10T00:54:29.135Z,0
2017-06-10T00:55:10.760Z,0
2017-06-10T00:55:51.367Z,0
2017-06-10T00:56:31.960Z,0
2017-06-10T00:57:12.492Z,0
2017-06-10T00:57:54.090Z,0
2017-06-10T00:58:34.695Z,0
2017-06-10T00:59:15.288Z,0
2017-06-10T00:59:55.813Z,0
2017-06-10T01:00:37.439Z,0
2017-06-10T01:01:20.071Z,0
2017-06-10T01:02:02.718Z,0
2017-06-10T01:02:43.246Z,0
2017-06-10T01:03:24.864Z,0
2017-06-10T01:04:05.466Z,0
2017-06-10T01:04:46.046Z,0
2017-06-10T01:05:26.599Z,0
2017-06-10T01:06:07.318Z,0
2017-06-10T01:06:47.977Z,0
2017-06-10T01:07:28.555Z,0
2017-06-10T01:08:09.083Z,0
2017-06-10T01:08:49.661Z,0
2017-06-10T01:09:30.261Z,0
2017-06-10T01:10:11.885Z,0
2017-06-10T01:10:52.409Z,0
2017-06-10T01:11:34.036Z,0
2017-06-10T01:12:14.628Z,0
2017-06-10T01:12:56.240Z,0
2017-06-10T01:13:36.763Z,0
2017-06-10T01:14:17.340Z,0
2017-06-10T01:14:57.956Z,0
2017-06-10T01:15:38.541Z,0
2017-06-10T01:16:19.042Z,0
2017-06-10T01:17:00.687Z,0
2017-06-10T01:17:42.311Z,0
2017-06-10T01:18:23.993Z,0
2017-06-10T01:19:04.644Z,0
2017-06-10T01:19:45.290Z,0
2017-06-10T01:20:25.931Z,0
2017-06-10T01:21:06.602Z,0
2017-06-10T01:21:47.255Z,0
2017-06-10T01:22:27.917Z,0
2017-06-10T01:23:08.566Z,0
2017-06-10T01:23:49.214Z,0
2017-06-10T01:24:29.856Z,0
2017-06-10T01:25:10.529Z,0
2017-06-10T01:25:51.172Z,0
2017-06-10T01:26:32.840Z,0
2017-06-10T01:27:14.411Z,0
2017-06-10T01:27:55.112Z,0
2017-06-10T01:28:35.864Z,0
2017-06-10T01:29:16.517Z,0
2017-06-10T01:29:58.229Z,0
2017-06-10T01:30:38.861Z,0
2017-06-10T01:31:19.514Z,0
2017-06-10T01:32:00.166Z,0
2017-06-10T01:32:40.806Z,0
2017-06-10T01:33:21.477Z,0
2017-06-10T01:34:04.169Z,0
2017-06-10T01:34:44.848Z,0
2017-06-10T01:35:26.602Z,0
2017-06-10T01:36:09.304Z,0
2017-06-10T01:36:49.967Z,0
2017-06-10T01:37:32.661Z,0
2017-06-10T01:38:13.302Z,0
2017-06-10T01:38:53.957Z,0
2017-06-10T01:39:35.647Z,0
2017-06-10T01:40:16.296Z,0
2017-06-10T01:40:56.954Z,0
2017-06-10T01:41:37.590Z,0
2017-06-10T01:42:18.263Z,0
2017-06-10T01:42:58.897Z,0
2017-06-10T01:43:41.618Z,0
2017-06-10T01:44:23.291Z,0
2017-06-10T01:45:03.951Z,0
2017-06-10T01:45:45.709Z,0
2017-06-10T01:46:26.368Z,0
2017-06-10T01:47:07.030Z,0
2017-06-10T01:47:48.708Z,0
2017-06-10T01:48:29.360Z,0
2017-06-10T01:49:10.013Z,0
2017-06-10T01:49:50.657Z,0
2017-06-10T01:50:33.371Z,0
2017-06-10T01:51:14.008Z,0
2017-06-10T01:51:55.703Z,0
2017-06-10T01:52:36.343Z,0
2017-06-10T01:53:21.924Z,0
2017-06-10T01:54:02.563Z,0
2017-06-10T01:54:43.206Z,0
2017-06-10T01:55:28.476Z,0
2017-06-10T01:56:09.125Z,0
2017-06-10T01:57:00.430Z,0
2017-06-10T01:57:43.131Z,0
2017-06-10T01:58:23.782Z,0
2017-06-10T01:59:08.951Z,0
2017-06-10T01:59:49.594Z,0
2017-06-10T02:00:30.247Z,0
2017-06-10T02:01:10.904Z,0
2017-06-10T02:01:51.560Z,0
2017-06-10T02:02:33.233Z,0
2017-06-10T02:03:13.888Z,0
2017-06-10T02:03:56.594Z,0
2017-06-10T02:04:38.265Z,0
2017-06-10T02:05:18.918Z,0
2017-06-10T02:06:01.632Z,0
2017-06-10T02:06:42.281Z,0
2017-06-10T02:07:22.983Z,0
2017-06-10T02:08:04.706Z,0
2017-06-10T02:08:45.501Z,0
2017-06-10T02:09:26.034Z,0
2017-06-10T02:10:06.769Z,0
2017-06-10T02:10:53.975Z,0
2017-06-10T02:11:35.692Z,0
2017-06-10T02:12:16.201Z,0
2017-06-10T02:12:56.921Z,0
2017-06-10T02:13:39.564Z,0
2017-06-10T02:14:20.250Z,0
2017-06-10T02:15:02.919Z,0
2017-06-10T02:15:43.614Z,0
2017-06-10T02:16:24.311Z,0
2017-06-10T02:17:07.072Z,0
2017-06-10T02:17:49.720Z,0
2017-06-10T02:18:30.384Z,0
2017-06-10T02:19:11.031Z,0
2017-06-10T02:19:51.680Z,0
2017-06-10T02:20:32.338Z,0
2017-06-10T02:21:12.989Z,0
2017-06-10T02:21:53.633Z,0
2017-06-10T02:22:34.406Z,0
2017-06-10T02:23:15.039Z,0
2017-06-10T02:23:55.689Z,0
2017-06-10T02:24:38.398Z,0
2017-06-10T02:25:20.082Z,0
2017-06-10T02:26:00.720Z,0
2017-06-10T02:26:42.407Z,0
2017-06-10T02:27:23.052Z,0
2017-06-10T02:28:09.444Z,0
2017-06-10T02:28:50.097Z,0
2017-06-10T02:29:35.468Z,0
2017-06-10T02:30:17.173Z,0
2017-06-10T02:31:02.512Z,0
2017-06-10T02:31:44.194Z,0
2017-06-10T02:32:26.906Z,0
2017-06-10T02:33:07.685Z,0
2017-06-10T02:33:48.337Z,0
2017-06-10T02:34:28.867Z,0
2017-06-10T02:35:09.585Z,0
2017-06-10T02:35:50.242Z,0
2017-06-10T02:36:31.973Z,0
2017-06-10T02:37:12.482Z,0
2017-06-10T02:37:53.207Z,0
2017-06-10T02:38:34.916Z,0
2017-06-10T02:39:16.630Z,0
2017-06-10T02:39:57.147Z,0
2017-06-10T02:40:44.702Z,0
2017-06-10T02:41:25.417Z,0
2017-06-10T02:42:06.100Z,0
2017-06-10T02:42:46.622Z,0
2017-06-10T02:43:27.359Z,0
2017-06-10T02:44:10.058Z,0
2017-06-10T02:44:50.776Z,0
2017-06-10T02:45:31.324Z,0
2017-06-10T02:46:11.969Z,0
2017-06-10T02:46:53.706Z,0
2017-06-10T02:47:39.311Z,0
2017-06-10T02:48:19.834Z,0
2017-06-10T02:49:00.532Z,0
2017-06-10T02:49:41.222Z,0
2017-06-10T02:50:21.821Z,0
2017-06-10T02:51:02.341Z,0
2017-06-10T02:51:42.938Z,0
2017-06-10T02:52:23.530Z,0
2017-06-10T02:53:05.153Z,0
2017-06-10T02:53:45.681Z,0
2017-06-10T02:54:26.267Z,0
2017-06-10T02:55:06.878Z,0
2017-06-10T02:55:47.454Z,0
2017-06-10T02:56:27.999Z,0
2017-06-10T02:57:09.605Z,0
2017-06-10T02:57:50.205Z,0
2017-06-10T02:58:30.781Z,0
2017-06-10T02:59:11.290Z,0
2017-06-10T02:59:51.894Z,5
2017-06-10T03:00:32.509Z,5
2017-06-10T03:01:13.086Z,5
2017-06-10T03:01:53.613Z,5
2017-06-10T03:02:34.209Z,5
2017-06-10T03:03:14.799Z,5
2017-06-10T03:03:56.368Z,5
2017-06-10T03:04:36.941Z,5
2017-06-10T03:05:17.592Z,5
2017-06-10T03:06:00.191Z,5
2017-06-10T03:06:40.729Z,5
2017-06-10T03:07:21.291Z,5
2017-06-10T03:08:01.834Z,5
2017-06-10T03:08:42.392Z,5
2017-06-10T03:09:28.877Z,10
2017-06-10T03:10:09.437Z,10
2017-06-10T03:10:49.977Z,10
2017-06-10T03:11:31.552Z,10
2017-06-10T03:12:14.153Z,10
2017-06-10T03:12:54.709Z,10
2017-06-10T03:13:35.343Z,10
2017-06-10T03:14:15.909Z,10
2017-06-10T03:14:58.507Z,10
2017-06-10T03:15:39.169Z,10
2017-06-10T03:16:19.798Z,15
2017-06-10T03:17:01.381Z,15
2017-06-10T03:17:43.986Z,15
2017-06-10T03:18:24.576Z,15
2017-06-10T03:19:05.095Z,15
2017-06-10T03:19:45.711Z,15
2017-06-10T03:20:26.290Z,15
2017-06-10T03:21:07.904Z,20
2017-06-10T03:21:48.419Z,20
2017-06-10T03:22:29.024Z,20
2017-06-10T03:23:09.630Z,20
2017-06-10T03:23:51.187Z,20
2017-06-10T03:24:31.840Z,20
2017-06-10T03:25:12.391Z,20
2017-06-10T03:25:52.949Z,25
2017-06-10T03:26:38.410Z,25
2017-06-10T03:27:23.876Z,25
2017-06-10T03:28:04.431Z,25
2017-06-10T03:28:45.023Z,25
2017-06-10T03:29:25.544Z,30
2017-06-10T03:30:06.160Z,30
2017-06-10T03:30:46.734Z,30
2017-06-10T03:31:27.324Z,30
2017-06-10T03:32:07.859Z,30
2017-06-10T03:32:48.480Z,30
2017-06-10T03:33:29.241Z,35
2017-06-10T03:34:09.835Z,35
2017-06-10T03:34:50.376Z,35
2017-06-10T03:35:30.954Z,35
2017-06-10T03:36:11.564Z,35
2017-06-10T03:36:52.140Z,40
2017-06-10T03:37:32.650Z,40
2017-06-10T03:38:15.316Z,40
2017-06-10T03:38:56.913Z,40
2017-06-10T03:39:37.465Z,40
2017-06-10T03:40:19.100Z,45
2017-06-10T03:41:00.715Z,45
2017-06-10T03:41:41.249Z,45
2017-06-10T03:42:21.885Z,45
2017-06-10T03:43:02.482Z,50
2017-06-10T03:43:44.056Z,50
2017-06-10T03:44:24.709Z,50
2017-06-10T03:45:05.351Z,50
2017-06-10T03:45:46.015Z,50
2017-06-10T03:46:26.694Z,55
2017-06-10T03:47:08.346Z,55
2017-06-10T03:47:49.046Z,55
2017-06-10T03:48:29.689Z,55
2017-06-10T03:49:10.202Z,60
2017-06-10T03:49:50.805Z,60
2017-06-10T03:50:31.406Z,60
2017-06-10T03:51:11.999Z,60
2017-06-10T03:51:52.531Z,60
2017-06-10T03:52:34.128Z,65
2017-06-10T03:53:14.746Z,65
2017-06-10T03:54:00.238Z,65
2017-06-10T03:54:40.761Z,65
2017-06-10T03:55:22.382Z,70
2017-06-10T03:56:04.007Z,70
2017-06-10T03:56:45.619Z,70
2017-06-10T03:57:26.138Z,70
2017-06-10T03:58:06.732Z,75
2017-06-10T03:58:48.357Z,75
2017-06-10T03:59:28.883Z,75
2017-06-10T04:00:09.535Z,75
2017-06-10T04:00:50.748Z,75
2017-06-10T04:01:31.278Z,80
2017-06-10T04:02:12.919Z,80
2017-06-10T04:02:54.533Z,80
2017-06-10T04:03:35.054Z,80
2017-06-10T04:04:15.686Z,85
2017-06-10T04:04:56.288Z,85
2017-06-10T04:05:36.946Z,85
2017-06-10T04:06:22.441Z,85
2017-06-10T04:07:07.966Z,90
2017-06-10T04:07:48.639Z,90
2017-06-10T04:08:30.236Z,90
2017-06-10T04:09:10.756Z,90
2017-06-10T04:09:51.353Z,90
2017-06-10T04:10:31.968Z,95
2017-06-10T04:11:12.643Z,95
2017-06-10T04:11:54.052Z,95
2017-06-10T04:12:35.251Z,95
2017-06-10T04:13:17.849Z,95
2017-06-10T04:13:58.400Z,100
2017-06-10T04:14:39.007Z,100
2017-06-10T04:15:20.619Z,100
2017-06-10T04:16:01.139Z,100
2017-06-10T04:16:41.783Z,105
2017-06-10T04:17:22.395Z,105
2017-06-10T04:18:02.891Z,105
2017-06-10T04:18:43.533Z,105
2017-06-10T04:19:29.212Z,105
2017-06-10T04:20:09.875Z,110
2017-06-10T04:20:51.533Z,110
2017-06-10T04:21:32.190Z,110
2017-06-10T04:22:12.843Z,110
2017-06-10T04:22:53.498Z,110
2017-06-10T04:23:36.095Z,110
2017-06-10T04:24:16.681Z,115
2017-06-10T04:24:57.385Z,115
2017-06-10T04:25:37.925Z,115
2017-06-10T04:26:18.533Z,115
2017-06-10T04:26:59.194Z,115
2017-06-10T04:27:40.915Z,120
2017-06-10T04:28:21.460Z,120
2017-06-10T04:29:02.139Z,120
2017-06-10T04:29:43.817Z,120
2017-06-10T04:30:25.473Z,125
2017-06-10T04:31:05.991Z,125
2017-06-10T04:31:48.635Z,125
2017-06-10T04:32:29.234Z,130
2017-06-10T04:33:14.745Z,130
2017-06-10T04:33:55.277Z,130
2017-06-10T04:34:36.878Z,135
2017-06-10T04:35:17.475Z,135
2017-06-10T04:36:00.130Z,135
2017-06-10T04:36:40.657Z,140
2017-06-10T04:37:22.263Z,140
2017-06-10T04:38:02.849Z,140
2017-06-10T04:38:44.470Z,140
2017-06-10T04:39:24.976Z,145
2017-06-10T04:40:05.592Z,150
2017-06-10T04:40:48.229Z,150
2017-06-10T04:41:28.938Z,150
2017-06-10T04:42:09.483Z,155
2017-06-10T04:42:51.070Z,155
2017-06-10T04:43:31.656Z,160
2017-06-10T04:44:12.336Z,160
2017-06-10T04:44:52.961Z,165
2017-06-10T04:45:33.632Z,165
2017-06-10T04:46:14.270Z,170
2017-06-10T04:46:54.794Z,170
2017-06-10T04:47:36.393Z,185
2017-06-10T04:48:16.997Z,215
2017-06-10T04:48:58.622Z,255
2017-06-10T04:49:41.223Z,270
2017-06-10T04:50:21.875Z,260
2017-06-10T04:51:08.467Z,345
2017-06-10T04:51:50.156Z,470
2017-06-10T04:52:32.743Z,515
2017-06-10T04:53:18.257Z,480
2017-06-10T04:53:59.894Z,375
2017-06-10T04:54:41.587Z,255
2017-06-10T04:55:23.250Z,210
2017-06-10T04:56:04.914Z,325
2017-06-10T04:56:45.580Z,445
2017-06-10T04:57:26.243Z,450
2017-06-10T04:58:07.903Z,300
2017-06-10T04:58:48.426Z,230
2017-06-10T04:59:29.072Z,240
2017-06-10T05:00:10.677Z,425
2017-06-10T05:00:51.181Z,640
2017-06-10T05:01:31.828Z,775
2017-06-10T05:02:12.330Z,670
2017-06-10T05:02:52.998Z,535
2017-06-10T05:03:33.476Z,410
2017-06-10T05:04:14.160Z,250
2017-06-10T05:05:01.646Z,205
2017-06-10T05:05:42.307Z,240
2017-06-10T05:06:22.952Z,325
2017-06-10T05:07:03.616Z,340
2017-06-10T05:07:44.264Z,325
2017-06-10T05:08:24.858Z,280
2017-06-10T05:09:05.458Z,270
2017-06-10T05:09:45.970Z,250
2017-06-10T05:10:27.601Z,260
2017-06-10T05:11:08.085Z,310
2017-06-10T05:11:49.707Z,320
2017-06-10T05:12:30.314Z,285
2017-06-10T05:13:10.914Z,275
2017-06-10T05:13:51.434Z,275
2017-06-10T05:14:32.045Z,305
2017-06-10T05:15:12.719Z,305
2017-06-10T05:15:53.330Z,280
2017-06-10T05:16:33.848Z,255
2017-06-10T05:17:14.341Z,235
2017-06-10T05:17:54.944Z,215
2017-06-10T05:18:35.473Z,185
2017-06-10T05:19:16.199Z,180
2017-06-10T05:19:56.731Z,175
2017-06-10T05:20:37.428Z,180
2017-06-10T05:21:18.083Z,180
2017-06-10T05:21:58.591Z,175
2017-06-10T05:22:39.232Z,175
2017-06-10T05:23:19.739Z,175
2017-06-10T05:24:00.398Z,185
2017-06-10T05:24:40.968Z,175
2017-06-10T05:25:21.625Z,175
2017-06-10T05:26:02.138Z,175
2017-06-10T05:26:42.661Z,175
2017-06-10T05:27:23.289Z,175
2017-06-10T05:28:03.819Z,180
2017-06-10T05:28:44.417Z,185
2017-06-10T05:29:26.039Z,220
2017-06-10T05:30:06.694Z,250
2017-06-10T05:30:47.221Z,325
2017-06-10T05:31:27.891Z,260
2017-06-10T05:32:08.536Z,305
2017-06-10T05:32:51.776Z,375
2017-06-10T05:33:32.319Z,360
2017-06-10T05:34:12.914Z,300
2017-06-10T05:34:53.428Z,255
2017-06-10T05:35:33.970Z,225
2017-06-10T05:36:14.647Z,200
2017-06-10T05:36:55.301Z,250
2017-06-10T05:37:35.955Z,225
2017-06-10T05:38:16.628Z,225
2017-06-10T05:38:57.313Z,195
2017-06-10T05:39:37.824Z,190
2017-06-10T05:40:18.519Z,195
2017-06-10T05:40:59.220Z,180
2017-06-10T05:41:39.925Z,180
2017-06-10T05:42:20.440Z,175
2017-06-10T05:43:01.156Z,175
2017-06-10T05:43:41.887Z,175
2017-06-10T05:44:22.412Z,175
2017-06-10T05:45:03.100Z,180
2017-06-10T05:45:43.629Z,175
2017-06-10T05:46:24.338Z,175
2017-06-10T05:47:04.863Z,175
2017-06-10T05:47:45.561Z,175
2017-06-10T05:48:26.085Z,175
2017-06-10T05:49:08.799Z,175
2017-06-10T05:49:50.492Z,175
2017-06-10T05:50:31.141Z,175
2017-06-10T05:51:12.825Z,175
2017-06-10T05:51:53.509Z,175
2017-06-10T05:52:34.161Z,175
2017-06-10T05:53:14.678Z,175
2017-06-10T05:53:55.389Z,175
2017-06-10T05:54:36.036Z,175
2017-06-10T05:55:16.693Z,175
2017-06-10T05:55:57.347Z,175
2017-06-10T05:56:38.081Z,175
2017-06-10T05:57:18.577Z,175
2017-06-10T05:57:59.252Z,175
2017-06-10T05:58:41.371Z,175
2017-06-10T05:59:22.078Z,175
2017-06-10T06:00:02.734Z,175
2017-06-10T06:00:43.396Z,175
2017-06-10T06:01:24.141Z,175
2017-06-10T06:02:04.785Z,175
2017-06-10T06:02:45.542Z,175
2017-06-10T06:03:26.205Z,175
2017-06-10T06:04:06.841Z,175
2017-06-10T06:04:47.511Z,175
2017-06-10T06:05:33.080Z,175
2017-06-10T06:06:13.722Z,175
2017-06-10T06:06:54.419Z,175
2017-06-10T06:07:35.068Z,175
2017-06-10T06:08:15.726Z,175
2017-06-10T06:08:57.302Z,175
2017-06-10T06:09:37.825Z,175
2017-06-10T06:10:18.559Z,175
2017-06-10T06:10:59.105Z,175
2017-06-10T06:11:39.757Z,175
2017-06-10T06:12:20.412Z,175
2017-06-10T06:13:01.092Z,175
2017-06-10T06:13:41.768Z,175
2017-06-10T06:14:22.292Z,175
2017-06-10T06:15:02.999Z,175
2017-06-10T06:15:43.677Z,175
2017-06-10T06:16:24.207Z,175
2017-06-10T06:17:04.783Z,175
2017-06-10T06:17:45.383Z,175
2017-06-10T06:18:25.905Z,175
2017-06-10T06:19:06.516Z,175
2017-06-10T06:19:47.165Z,175
2017-06-10T06:20:27.808Z,175
2017-06-10T06:21:08.471Z,175
2017-06-10T06:21:49.110Z,175
2017-06-10T06:22:29.675Z,175
2017-06-10T06:23:10.314Z,175
2017-06-10T06:23:50.970Z,175
2017-06-10T06:24:31.631Z,175
2017-06-10T06:25:12.276Z,175
2017-06-10T06:25:57.653Z,175
2017-06-10T06:26:43.218Z,175
2017-06-10T06:27:23.855Z,175
2017-06-10T06:28:16.181Z,175
2017-06-10T06:28:56.750Z,175
2017-06-10T06:29:39.334Z,175
2017-06-10T06:30:24.695Z,175
2017-06-10T06:31:07.588Z,175
2017-06-10T06:31:49.173Z,175
2017-06-10T06:32:29.739Z,175
2017-06-10T06:33:23.179Z,175
2017-06-10T06:34:03.789Z,175
2017-06-10T06:34:46.385Z,175
2017-06-10T06:35:28.078Z,175
2017-06-10T06:36:08.706Z,175
2017-06-10T06:36:49.358Z,175
2017-06-10T06:37:45.473Z,175
2017-06-10T06:40:18.923Z,175
2017-06-10T06:41:04.383Z,175
2017-06-10T06:41:55.889Z,175
2017-06-10T06:42:36.414Z,175
2017-06-10T06:43:18.020Z,175
2017-06-10T06:44:03.281Z,175
2017-06-10T06:44:56.583Z,175
2017-06-10T06:45:37.098Z,175
2017-06-10T06:46:22.338Z,175
2017-06-10T06:47:03.972Z,175
2017-06-10T06:47:44.483Z,175
2017-06-10T06:48:24.976Z,175
2017-06-10T06:49:05.540Z,175
2017-06-10T06:49:46.180Z,175
2017-06-10T06:50:26.714Z,175
2017-06-10T06:51:08.301Z,175
2017-06-10T06:51:48.892Z,175
2017-06-10T06:52:29.506Z,175
2017-06-10T06:53:10.024Z,170
2017-06-10T06:53:50.646Z,170
2017-06-10T06:54:31.161Z,175
2017-06-10T06:55:11.813Z,175
2017-06-10T06:55:52.399Z,175
2017-06-10T06:56:32.914Z,175
2017-06-10T06:57:13.507Z,175
2017-06-10T06:57:54.015Z,175
2017-06-10T06:58:34.606Z,175
2017-06-10T06:59:15.230Z,175
2017-06-10T06:59:55.873Z,170
2017-06-10T07:00:36.418Z,175
2017-06-10T07:01:17.089Z,170
2017-06-10T07:01:57.729Z,170
2017-06-10T07:02:38.279Z,170
2017-06-10T07:03:18.820Z,170
2017-06-10T07:03:59.371Z,170
2017-06-10T07:04:39.925Z,170
2017-06-10T07:05:20.473Z,170
2017-06-10T07:06:01.022Z,170
2017-06-10T07:06:41.579Z,170
2017-06-10T07:07:22.129Z,170
2017-06-10T07:08:02.672Z,170
2017-06-10T07:08:43.238Z,170
2017-06-10T07:09:23.784Z,170
2017-06-10T07:10:04.326Z,170
2017-06-10T07:10:44.881Z,170
2017-06-10T07:11:25.527Z,170
2017-06-10T07:12:06.095Z,170
2017-06-10T07:12:47.656Z,170
2017-06-10T07:13:28.198Z,170
2017-06-10T07:14:09.618Z,170
2017-06-10T07:14:50.248Z,170
2017-06-10T07:15:30.773Z,170
2017-06-10T07:16:11.377Z,175
2017-06-10T07:16:51.899Z,175
2017-06-10T07:17:32.428Z,175
2017-06-10T07:18:13.000Z,175
2017-06-10T07:18:53.806Z,170
2017-06-10T07:19:34.357Z,175
2017-06-10T07:20:14.965Z,175
2017-06-10T07:20:55.589Z,175
2017-06-10T07:21:36.113Z,175
2017-06-10T07:22:16.663Z,175
2017-06-10T07:22:57.242Z,175
2017-06-10T07:23:37.765Z,175
2017-06-10T07:24:18.366Z,175
2017-06-10T07:24:59.022Z,175
2017-06-10T07:25:39.656Z,175
2017-06-10T07:26:20.226Z,175
2017-06-10T07:27:00.861Z,170
2017-06-10T07:27:41.532Z,170
2017-06-10T07:28:22.180Z,175
2017-06-10T07:29:02.735Z,170
2017-06-10T07:29:43.394Z,175
2017-06-10T07:30:24.014Z,175
2017-06-10T07:31:04.589Z,170
2017-06-10T07:31:45.115Z,170
2017-06-10T07:32:25.690Z,170
2017-06-10T07:33:06.342Z,170
2017-06-10T07:33:46.980Z,175
2017-06-10T07:34:27.572Z,175
2017-06-10T07:35:08.124Z,175
2017-06-10T07:35:48.694Z,170
2017-06-10T07:36:29.280Z,170
2017-06-10T07:37:09.879Z,170
2017-06-10T07:37:50.426Z,170
2017-06-10T07:38:31.002Z,170
2017-06-10T07:39:11.629Z,170
2017-06-10T07:39:52.137Z,170
2017-06-10T07:40:32.680Z,170
2017-06-10T07:41:13.200Z,170
2017-06-10T07:41:53.784Z,170
2017-06-10T07:42:34.279Z,170
2017-06-10T07:43:14.805Z,170
2017-06-10T07:43:55.306Z,170
2017-06-10T07:44:35.821Z,170
2017-06-10T07:45:16.387Z,175
2017-06-10T07:45:56.899Z,170
2017-06-10T07:46:37.535Z,170
2017-06-10T07:47:18.086Z,170
2017-06-10T07:47:58.583Z,170
2017-06-10T07:48:39.109Z,170
2017-06-10T07:49:20.298Z,170
2017-06-10T07:50:00.835Z,170
2017-06-10T07:50:41.400Z,170
2017-06-10T07:51:21.922Z,170
2017-06-10T07:52:02.474Z,170
2017-06-10T07:52:43.131Z,170
2017-06-10T07:53:23.721Z,170
2017-06-10T07:54:04.325Z,170
2017-06-10T07:54:44.836Z,170
2017-06-10T07:55:25.567Z,170
2017-06-10T07:56:06.157Z,175
2017-06-10T07:56:46.841Z,170
2017-06-10T07:57:27.485Z,170
2017-06-10T07:58:08.046Z,170
2017-06-10T07:58:48.584Z,170
2017-06-10T07:59:29.093Z,170
2017-06-10T08:00:09.647Z,170
2017-06-10T08:00:50.206Z,175
2017-06-10T08:01:30.717Z,170
2017-06-10T08:02:11.244Z,170
2017-06-10T08:02:51.785Z,170
2017-06-10T08:03:32.322Z,170
2017-06-10T08:04:12.896Z,170
2017-06-10T08:04:53.434Z,175
2017-06-10T08:05:34.025Z,175
2017-06-10T08:06:14.532Z,175
2017-06-10T08:06:55.029Z,175
2017-06-10T08:07:35.597Z,175
2017-06-10T08:08:16.146Z,175
2017-06-10T08:08:56.677Z,175
2017-06-10T08:09:37.173Z,175
2017-06-10T08:10:17.786Z,175
2017-06-10T08:10:58.306Z,175
2017-06-10T08:11:38.881Z,175
2017-06-10T08:12:19.445Z,175
2017-06-10T08:12:59.938Z,175
2017-06-10T08:13:40.452Z,175
2017-06-10T08:14:20.992Z,175
2017-06-10T08:15:01.607Z,175
2017-06-10T08:15:42.147Z,175
2017-06-10T08:16:22.735Z,175
2017-06-10T08:17:03.365Z,175
2017-06-10T08:17:43.946Z,175
2017-06-10T08:18:24.474Z,175
2017-06-10T08:19:05.104Z,175
2017-06-10T08:19:45.751Z,175
2017-06-10T08:20:26.372Z,175
2017-06-10T08:21:07.055Z,175
2017-06-10T08:21:47.672Z,175
2017-06-10T08:22:28.253Z,175
2017-06-10T08:23:08.909Z,175
2017-06-10T08:23:49.529Z,175
2017-06-10T08:24:30.122Z,175
2017-06-10T08:25:10.661Z,175
2017-06-10T08:25:51.232Z,175
2017-06-10T08:26:31.765Z,170
2017-06-10T08:27:12.395Z,175
2017-06-10T08:27:52.924Z,175
2017-06-10T08:28:33.538Z,175
2017-06-10T08:29:14.072Z,170
2017-06-10T08:29:54.654Z,175
2017-06-10T08:30:35.197Z,175
2017-06-10T08:31:15.824Z,170
2017-06-10T08:31:56.355Z,175
2017-06-10T08:32:36.883Z,175
2017-06-10T08:35:05.344Z,175
2017-06-10T08:35:45.973Z,175
2017-06-10T08:36:26.515Z,170
2017-06-10T08:37:07.077Z,175
2017-06-10T08:37:48.654Z,175
2017-06-10T08:38:30.232Z,175
2017-06-10T08:39:10.877Z,175
2017-06-10T08:39:51.411Z,175
2017-06-10T08:40:32.045Z,175
2017-06-10T08:41:12.618Z,175
2017-06-10T08:41:53.222Z,175
2017-06-10T08:42:33.770Z,180
2017-06-10T08:43:14.314Z,175
2017-06-10T08:43:54.867Z,175
2017-06-10T08:44:35.420Z,175
2017-06-10T08:45:15.942Z,175
2017-06-10T08:45:56.548Z,175
2017-06-10T08:46:37.141Z,175
2017-06-10T08:47:17.694Z,175
2017-06-10T08:47:58.234Z,175
2017-06-10T08:48:38.755Z,175
2017-06-10T08:49:19.336Z,175
2017-06-10T08:49:59.864Z,175
2017-06-10T08:50:40.439Z,175
2017-06-10T08:51:20.991Z,175
2017-06-10T08:52:01.554Z,180
2017-06-10T08:52:42.211Z,180
2017-06-10T08:53:22.778Z,180
2017-06-10T08:54:03.437Z,180
2017-06-10T08:54:43.970Z,180
2017-06-10T08:55:24.546Z,180
2017-06-10T08:56:05.070Z,180
2017-06-10T08:56:45.701Z,175
2017-06-10T08:57:26.363Z,175
2017-06-10T08:58:06.890Z,180
2017-06-10T08:58:47.419Z,175
2017-06-10T08:59:28.012Z,175
2017-06-10T09:00:08.522Z,185
2017-06-10T09:00:49.036Z,180
2017-06-10T09:01:29.548Z,180
2017-06-10T09:02:10.095Z,180
2017-06-10T09:02:50.674Z,180
2017-06-10T09:03:31.235Z,180
2017-06-10T09:04:11.770Z,185
2017-06-10T09:04:52.462Z,185
2017-06-10T09:05:33.077Z,180
2017-06-10T09:06:13.783Z,185
2017-06-10T09:06:54.373Z,185
2017-06-10T09:07:34.916Z,190
2017-06-10T09:08:15.577Z,190
2017-06-10T09:08:56.130Z,190
2017-06-10T09:09:36.796Z,195
2017-06-10T09:10:17.422Z,190
2017-06-10T09:10:58.089Z,195
2017-06-10T09:11:44.552Z,195
2017-06-10T09:12:31.194Z,200
2017-06-10T09:13:11.799Z,195
2017-06-10T09:13:52.455Z,200
2017-06-10T09:14:45.940Z,195
2017-06-10T09:15:26.488Z,195
2017-06-10T09:16:11.799Z,195
2017-06-10T09:16:54.417Z,195
2017-06-10T09:17:36.027Z,205
2017-06-10T09:18:16.565Z,200
2017-06-10T09:19:08.157Z,215
2017-06-10T09:19:48.687Z,205
2017-06-10T09:20:29.308Z,225
2017-06-10T09:21:14.604Z,245
2017-06-10T09:21:55.153Z,230
2017-06-10T09:22:35.763Z,230
2017-06-10T09:23:16.365Z,235
2017-06-10T09:23:56.882Z,235
2017-06-10T09:24:43.279Z,255
2017-06-10T09:25:30.611Z,265
2017-06-10T09:26:12.225Z,270
2017-06-10T09:26:52.759Z,275
2017-06-10T09:27:33.365Z,285
2017-06-10T09:28:15.000Z,290
2017-06-10T09:28:57.603Z,300
2017-06-10T09:29:40.202Z,315
2017-06-10T09:30:37.442Z,320
2017-06-10T09:31:22.907Z,330
2017-06-10T09:32:03.458Z,335
2017-06-10T09:32:45.033Z,340
2017-06-10T09:33:32.443Z,355
2017-06-10T09:34:13.097Z,360
2017-06-10T10:00:07.191Z,410
2017-06-10T10:00:49.822Z,430
2017-06-10T10:01:30.442Z,445
2017-06-10T10:02:10.992Z,455
2017-06-10T10:02:52.588Z,430
2017-06-10T10:03:33.123Z,410
2017-06-10T10:04:14.695Z,410
2017-06-10T10:04:55.254Z,415
2017-06-10T10:05:36.871Z,400
2017-06-10T10:06:24.019Z,400
2017-06-10T10:07:04.578Z,400
2017-06-10T10:07:45.194Z,390
2017-06-10T10:08:25.731Z,385
2017-06-10T10:09:06.329Z,380
2017-06-10T10:09:46.847Z,380
2017-06-10T10:10:28.416Z,380
2017-06-10T10:11:09.021Z,375